Time;durP1;ratioP1;P1;durP2;ratioP2;P2;SDS_P1;SDS_P2;PMS_P1;PMS_P2;Temp;Humidity;BMP_temperature;BMP_pressure;BME280_temperature;BME280_humidity;BME280_pressure;Samples;Min_cycle;Max_cycle;Signal;HPM_P1;HPM_P2
2021/04/01 00:02:10;;;;;;;10.75;3.72;;;;;;;8.34;100.00;100400.25;5030305;28;20057;-85
2021/04/01 00:05:14;;;;;;;10.32;2.58;;;;;;;8.26;100.00;100396.94;5030220;28;20410;-84
2021/04/01 00:08:18;;;;;;;8.68;2.63;;;;;;;8.17;100.00;100412.66;5029568;28;20405;-81
2021/04/01 00:11:21;;;;;;;4.85;2.65;;;;;;;8.07;100.00;100413.78;5025990;28;20052;-83
2021/04/01 00:14:25;;;;;;;5.88;2.38;;;;;;;7.99;100.00;100412.47;5030858;28;20065;-83
2021/04/01 00:17:29;;;;;;;3.60;2.58;;;;;;;7.92;100.00;100423.78;5030871;28;20065;-83
2021/04/01 00:20:33;;;;;;;10.32;2.63;;;;;;;7.84;100.00;100405.81;5029719;28;20521;-81
2021/04/01 00:23:36;;;;;;;8.57;3.08;;;;;;;7.76;100.00;100412.78;5030620;28;20215;-83
2021/04/01 00:26:40;;;;;;;8.10;2.72;;;;;;;7.74;100.00;100421.56;5030033;28;20064;-83
2021/04/01 00:29:43;;;;;;;5.45;2.17;;;;;;;7.71;100.00;100413.34;5022038;28;20064;-83
2021/04/01 00:32:47;;;;;;;7.35;2.42;;;;;;;7.64;100.00;100431.72;5030381;28;20084;-84
2021/04/01 00:35:51;;;;;;;10.23;2.40;;;;;;;7.61;100.00;100438.19;5030428;28;20072;-83
2021/04/01 00:38:54;;;;;;;7.40;3.38;;;;;;;7.56;100.00;100438.72;5030970;28;20064;-82
2021/04/01 00:41:58;;;;;;;10.40;4.40;;;;;;;7.50;100.00;100440.47;5029958;28;20068;-81
2021/04/01 00:45:05;;;;;;;5.55;2.33;;;;;;;7.48;100.00;100445.69;5024416;28;20057;-81
2021/04/01 00:48:10;;;;;;;7.32;1.88;;;;;;;7.44;100.00;100460.88;5030646;28;20413;-83
2021/04/01 00:51:14;;;;;;;4.80;2.72;;;;;;;7.39;100.00;100464.94;5030596;28;20513;-76
2021/04/01 00:54:17;;;;;;;7.72;2.50;;;;;;;7.36;100.00;100468.59;5019319;28;20068;-80
2021/04/01 00:57:21;;;;;;;5.65;2.53;;;;;;;7.31;100.00;100483.00;5029100;28;20129;-82
2021/04/01 01:00:27;;;;;;;7.20;2.45;;;;;;;7.25;100.00;100475.66;5029921;28;20418;-78
2021/04/01 01:03:31;;;;;;;4.35;3.30;;;;;;;7.21;100.00;100475.72;5015051;28;20081;-78
2021/04/01 01:06:34;;;;;;;8.15;2.33;;;;;;;7.20;100.00;100474.19;5011187;28;20053;-80
2021/04/01 01:09:38;;;;;;;6.68;2.67;;;;;;;7.17;100.00;100486.13;5010805;28;20065;-79
2021/04/01 01:12:41;;;;;;;4.65;2.42;;;;;;;7.13;100.00;100468.06;5010558;28;20069;-81
2021/04/01 01:15:45;;;;;;;3.95;2.15;;;;;;;7.10;100.00;100480.81;5001749;28;20072;-80
2021/04/01 01:18:49;;;;;;;4.15;1.92;;;;;;;7.07;100.00;100484.44;5003257;28;20065;-76
2021/04/01 01:21:52;;;;;;;2.67;1.63;;;;;;;7.05;100.00;100478.56;5006074;28;20072;-82
2021/04/01 01:24:56;;;;;;;5.28;2.35;;;;;;;7.06;100.00;100484.88;5003461;28;20072;-79
2021/04/01 01:28:01;;;;;;;4.03;2.20;;;;;;;7.05;100.00;100497.16;5003833;28;20061;-79
2021/04/01 01:31:05;;;;;;;4.97;1.75;;;;;;;7.03;100.00;100486.53;5013156;28;20077;-82
2021/04/01 01:34:08;;;;;;;2.58;1.85;;;;;;;7.01;100.00;100491.72;5014069;28;20053;-81
2021/04/01 01:37:13;;;;;;;3.55;2.25;;;;;;;6.97;100.00;100498.56;5013696;28;20411;-74
2021/04/01 01:40:18;;;;;;;6.50;2.35;;;;;;;6.96;100.00;100492.25;5012574;28;20061;-80
2021/04/01 01:43:22;;;;;;;4.28;2.65;;;;;;;6.96;100.00;100492.25;5017277;28;20053;-75
2021/04/01 01:46:26;;;;;;;17.40;2.72;;;;;;;6.96;100.00;100497.78;5012324;28;20422;-77
2021/04/01 01:49:39;;;;;;;4.57;1.92;;;;;;;6.97;100.00;100506.88;5013258;28;20061;-82
2021/04/01 01:52:43;;;;;;;2.42;0.82;;;;;;;6.99;100.00;100496.13;5013169;28;20057;-76
2021/04/01 01:55:46;;;;;;;1.20;0.93;;;;;;;6.98;100.00;100498.13;4993538;28;20070;-77
2021/04/01 01:58:52;;;;;;;2.33;1.80;;;;;;;7.02;100.00;100498.81;5012093;28;20521;-77
2021/04/01 02:01:57;;;;;;;6.80;1.38;;;;;;;7.04;100.00;100520.53;5015021;28;20072;-78
2021/04/01 02:05:01;;;;;;;5.95;1.38;;;;;;;7.06;100.00;100507.78;5030161;28;20425;-82
2021/04/01 02:08:06;;;;;;;6.82;1.83;;;;;;;7.04;100.00;100490.84;5032613;28;20080;-78
2021/04/01 02:11:10;;;;;;;5.35;1.55;;;;;;;7.04;100.00;100503.94;5020880;28;20526;-76
2021/04/01 02:14:13;;;;;;;3.83;1.23;;;;;;;7.02;100.00;100509.13;5032275;28;20544;-76
2021/04/01 02:17:23;;;;;;;3.83;1.50;;;;;;;7.04;100.00;100512.25;5031786;28;20061;-79
2021/04/01 02:20:26;;;;;;;2.63;1.58;;;;;;;7.05;100.00;100502.69;5031028;28;20532;-77
2021/04/01 02:23:32;;;;;;;9.68;2.33;;;;;;;7.05;100.00;100517.34;5012344;28;20091;-78
2021/04/01 02:26:36;;;;;;;3.33;2.10;;;;;;;7.06;100.00;100485.63;5023448;28;20061;-83
2021/04/01 02:29:39;;;;;;;4.15;1.65;;;;;;;7.06;100.00;100510.56;5032284;28;20520;-80
2021/04/01 02:32:43;;;;;;;6.25;1.20;;;;;;;7.06;100.00;100513.34;5023615;28;20068;-82
2021/04/01 02:35:46;;;;;;;4.80;1.42;;;;;;;7.08;100.00;100532.31;5023736;28;20069;-81
2021/04/01 02:38:50;;;;;;;1.58;1.10;;;;;;;7.07;100.00;100520.44;5024418;28;20064;-81
2021/04/01 02:41:53;;;;;;;1.75;1.40;;;;;;;7.09;100.00;100536.63;5010180;28;20061;-82
2021/04/01 02:44:57;;;;;;;3.33;2.08;;;;;;;7.08;100.00;100537.84;5026854;28;20520;-82
2021/04/01 02:48:01;;;;;;;2.28;0.93;;;;;;;7.07;100.00;100542.59;5031645;28;20060;-81
2021/04/01 02:51:05;;;;;;;5.43;1.40;;;;;;;7.03;100.00;100552.19;5027357;28;20068;-81
2021/04/01 02:54:08;;;;;;;4.22;1.40;;;;;;;7.00;100.00;100575.22;5026851;28;20129;-82
2021/04/01 02:57:16;;;;;;;3.22;1.23;;;;;;;6.99;100.00;100577.22;5027360;28;20057;-82
2021/04/01 03:00:23;;;;;;;4.60;1.30;;;;;;;6.97;100.00;100557.50;5009784;28;20060;-81
2021/04/01 03:03:35;;;;;;;5.68;1.73;;;;;;;6.99;100.00;100557.06;5029256;28;20061;-81
2021/04/01 03:06:39;;;;;;;6.80;1.05;;;;;;;7.00;100.00;100550.28;5030279;28;20060;-80
2021/04/01 03:09:42;;;;;;;0.82;0.75;;;;;;;6.98;100.00;100561.81;5031454;28;20080;-81
2021/04/01 03:12:46;;;;;;;2.25;1.27;;;;;;;6.95;100.00;100573.78;5022779;28;20080;-81
2021/04/01 03:15:50;;;;;;;2.42;1.30;;;;;;;6.92;100.00;100563.56;5023072;28;20481;-81
2021/04/01 03:18:53;;;;;;;5.28;2.03;;;;;;;6.89;100.00;100569.94;5031255;28;20168;-81
2021/04/01 03:21:57;;;;;;;3.20;1.33;;;;;;;6.84;100.00;100565.69;5030909;28;20064;-81
2021/04/01 03:25:01;;;;;;;2.75;1.05;;;;;;;6.80;100.00;100556.72;5030483;28;20409;-81
2021/04/01 03:28:05;;;;;;;4.90;1.80;;;;;;;6.80;100.00;100578.06;5031158;28;20509;-81
2021/04/01 03:31:09;;;;;;;3.65;2.05;;;;;;;6.79;100.00;100582.06;5031826;28;20057;-84
2021/04/01 03:34:12;;;;;;;2.83;0.88;;;;;;;6.78;100.00;100575.75;5030067;28;20080;-81
2021/04/01 03:37:15;;;;;;;3.85;1.38;;;;;;;6.80;100.00;100605.75;5030766;28;20072;-81
2021/04/01 03:40:19;;;;;;;4.15;1.95;;;;;;;6.82;100.00;100595.81;5030004;28;20148;-81
2021/04/01 03:43:25;;;;;;;1.02;1.02;;;;;;;6.83;100.00;100591.06;5030449;28;20056;-81
2021/04/01 03:46:29;;;;;;;5.72;0.93;;;;;;;6.84;100.00;100600.94;5030822;28;20520;-81
2021/04/01 03:49:32;;;;;;;2.83;1.40;;;;;;;6.83;100.00;100621.50;5030562;28;20543;-81
2021/04/01 03:52:37;;;;;;;6.13;2.03;;;;;;;6.83;100.00;100624.28;5029367;28;20520;-81
2021/04/01 03:55:44;;;;;;;4.07;1.48;;;;;;;6.82;100.00;100631.03;5030547;28;20060;-82
2021/04/01 04:05:36;;;;;;;2.13;1.13;;;;;;;6.84;100.00;100659.81;5013380;28;20544;-81
2021/04/01 04:12:02;;;;;;;11.40;2.15;;;;;;;6.86;100.00;100653.88;5022596;28;20060;-81
2021/04/01 04:15:24;;;;;;;4.53;2.25;;;;;;;6.84;100.00;100650.75;5025394;28;20560;-80
2021/04/01 04:18:28;;;;;;;;;;;;;;;6.87;100.00;100653.44;5009313;28;20056;-81
2021/04/01 04:21:31;;;;;;;2.40;0.70;;;;;;;6.89;100.00;100661.31;5028816;28;19921;-80
2021/04/01 04:24:37;;;;;;;7.50;2.17;;;;;;;6.86;100.00;100668.47;5028040;28;20068;-81
2021/04/01 04:28:01;;;;;;;1.38;1.05;;;;;;;6.85;100.00;100655.06;5010422;28;20057;-81
2021/04/01 04:31:04;;;;;;;1.95;1.10;;;;;;;6.83;100.00;100649.19;5023285;28;20057;-81
2021/04/01 04:34:08;;;;;;;5.60;1.88;;;;;;;6.80;100.00;100667.44;5029691;28;20056;-81
2021/04/01 04:37:11;;;;;;;2.70;1.58;;;;;;;6.81;100.00;100673.75;5029858;28;20060;-80
2021/04/01 04:40:15;;;;;;;4.35;2.53;;;;;;;6.77;100.00;100662.78;5030084;28;20410;-81
2021/04/01 04:43:19;;;;;;;0.93;0.77;;;;;;;6.75;100.00;100673.50;5025857;28;20060;-82
2021/04/01 04:46:22;;;;;;;3.08;1.02;;;;;;;6.76;100.00;100679.78;5029632;28;20671;-81
2021/04/01 04:49:26;;;;;;;4.88;1.88;;;;;;;6.73;100.00;100673.16;5029952;28;20413;-81
2021/04/01 04:52:31;;;;;;;5.68;1.30;;;;;;;6.71;100.00;100686.63;5030018;28;20060;-81
2021/04/01 04:55:35;;;;;;;15.55;1.33;;;;;;;6.71;100.00;100685.88;5030069;28;20048;-81
2021/04/01 05:05:20;;;;;;;9.30;1.38;;;;;;;6.65;100.00;100698.63;5031339;28;20060;-82
2021/04/01 05:08:23;;;;;;;2.08;1.05;;;;;;;6.60;100.00;100696.38;5032793;28;20064;-80
2021/04/01 05:11:27;;;;;;;3.65;0.98;;;;;;;6.55;100.00;100697.66;5033772;28;20512;-81
2021/04/01 05:14:30;;;;;;;16.17;2.00;;;;;;;6.52;100.00;100708.81;5033734;28;20060;-81
2021/04/01 05:17:34;;;;;;;0.98;0.95;;;;;;;6.49;100.00;100709.66;5033698;28;20513;-81
2021/04/01 05:20:38;;;;;;;6.95;1.45;;;;;;;6.48;100.00;100721.91;5033484;28;20072;-81
2021/04/01 05:23:47;;;;;;;2.53;2.10;;;;;;;6.45;100.00;100742.16;5033505;28;20064;-82
2021/04/01 05:30:01;;;;;;;17.38;2.38;;;;;;;6.44;100.00;100726.75;5033461;28;20068;-81
2021/04/01 05:33:05;;;;;;;12.55;1.38;;;;;;;6.41;100.00;100733.16;5028405;28;20527;-82
2021/04/01 05:36:11;;;;;;;1.65;1.05;;;;;;;6.40;100.00;100731.56;5028396;28;20080;-81
2021/04/01 05:39:18;;;;;;;10.63;2.05;;;;;;;6.37;100.00;100749.78;5029568;28;20072;-82
2021/04/01 05:42:26;;;;;;;2.92;1.98;;;;;;;6.34;100.00;100741.59;5032286;28;20060;-82
2021/04/01 05:46:06;;;;;;;8.43;2.28;;;;;;;6.31;100.00;100734.13;5032972;28;20064;-81
2021/04/01 05:49:17;;;;;;;9.10;2.15;;;;;;;6.29;100.00;100742.06;5026595;28;20409;-82
2021/04/01 06:05:25;;;;;;;4.47;1.73;;;;;;;6.13;100.00;100769.66;5028934;28;20060;-82
2021/04/01 06:08:31;;;;;;;6.80;1.10;;;;;;;6.10;100.00;100774.03;5032364;28;20571;-82
2021/04/01 06:11:34;;;;;;;7.88;1.83;;;;;;;6.09;100.00;100772.47;5033113;28;20061;-82
2021/04/01 06:14:58;;;;;;;13.30;0.63;;;;;;;6.11;100.00;100773.59;5032255;28;20049;-82
2021/04/01 06:18:09;;;;;;;1.55;0.43;;;;;;;6.13;100.00;100775.94;5026555;28;20080;-83
2021/04/01 06:21:13;;;;;;;1.73;1.20;;;;;;;6.13;100.00;100783.47;5027843;28;20120;-82
2021/04/01 06:24:25;;;;;;;3.65;1.90;;;;;;;6.12;100.00;100782.69;5033500;28;20060;-83
2021/04/01 06:27:38;;;;;;;6.72;3.03;;;;;;;6.12;100.00;100788.22;5030652;28;20069;-81
2021/04/01 06:30:45;;;;;;;3.63;1.55;;;;;;;6.09;100.00;100778.78;5032089;28;20060;-82
2021/04/01 06:33:51;;;;;;;5.68;1.77;;;;;;;6.15;100.00;100778.31;5025120;28;20068;-81
2021/04/01 06:36:56;;;;;;;4.40;2.03;;;;;;;6.18;100.00;100782.97;5025585;28;20057;-82
2021/04/01 06:40:00;;;;;;;1.20;0.60;;;;;;;6.17;100.00;100786.94;5027529;28;20053;-81
2021/04/01 06:43:38;;;;;;;4.63;1.38;;;;;;;6.18;100.00;100796.78;5027217;28;20056;-81
2021/04/01 06:46:46;;;;;;;2.90;1.25;;;;;;;6.23;100.00;100804.63;5020700;28;20064;-81
2021/04/01 06:50:16;;;;;;;2.95;1.00;;;;;;;6.21;100.00;100802.28;5020517;28;20077;-81
2021/04/01 06:53:28;;;;;;;2.47;1.20;;;;;;;6.26;100.00;100809.31;5031443;28;20069;-83
2021/04/01 07:03:51;;;;;;;1.77;0.50;;;;;;;6.24;100.00;100818.00;5032207;28;20057;-82
2021/04/01 07:07:09;;;;;;;4.45;1.17;;;;;;;6.22;100.00;100836.22;5026220;28;20056;-83
2021/04/01 07:13:27;;;;;;;3.13;0.90;;;;;;;6.23;100.00;100848.88;5032961;28;20124;-83
2021/04/01 07:47:00;;;;;;;11.77;1.00;;;;;;;6.25;100.00;100894.25;5019709;28;20068;-82
2021/04/01 07:50:22;;;;;;;2.75;1.65;;;;;;;6.28;100.00;100900.94;5031088;28;20064;-81
2021/04/01 07:53:27;;;;;;;1.00;0.50;;;;;;;6.28;100.00;100900.94;5029499;28;20072;-82
2021/04/01 07:56:36;;;;;;;4.68;1.15;;;;;;;6.30;100.00;100904.06;5037329;28;20061;-81
2021/04/01 08:00:47;;;;;;;0.68;0.68;;;;;;;6.37;100.00;100910.25;5032232;28;20068;-82
2021/04/01 08:06:35;;;;;;;1.23;0.60;;;;;;;6.43;100.00;100913.34;5030092;28;20072;-82
2021/04/01 08:09:42;;;;;;;1.08;0.93;;;;;;;6.38;100.00;100911.03;5029601;28;20053;-81
2021/04/01 08:12:50;;;;;;;0.90;0.88;;;;;;;6.33;100.00;100908.75;5030424;28;20513;-81
2021/04/01 08:15:58;;;;;;;0.55;0.55;;;;;;;6.25;100.00;100912.84;5030263;28;20076;-82
2021/04/01 08:19:03;;;;;;;0.93;0.85;;;;;;;6.36;100.00;100930.03;5024466;28;20060;-81
2021/04/01 08:22:16;;;;;;;1.88;0.68;;;;;;;6.44;100.00;100921.22;5024347;28;20076;-80
2021/04/01 08:25:20;;;;;;;0.90;0.90;;;;;;;6.48;100.00;100921.13;5025764;28;20064;-81
2021/04/01 08:34:48;;;;;;;2.10;0.85;;;;;;;6.55;100.00;100932.09;5022610;28;20077;-80
2021/04/01 08:41:20;;;;;;;1.83;1.17;;;;;;;6.48;100.00;100937.72;5033079;28;20529;-80
2021/04/01 08:44:52;;;;;;;3.10;1.20;;;;;;;6.40;100.00;100941.84;5033297;28;20068;-80
2021/04/01 08:47:58;;;;;;;2.60;1.08;;;;;;;6.45;100.00;100952.44;5027356;28;20147;-82
2021/04/01 08:51:07;;;;;;;1.33;1.23;;;;;;;6.48;100.00;100935.75;5034314;28;20117;-80
2021/04/01 08:54:15;;;;;;;0.80;0.63;;;;;;;6.53;100.00;100940.81;5029864;28;20064;-81
2021/04/01 08:57:31;;;;;;;4.07;1.02;;;;;;;6.59;100.00;100944.66;5031996;28;20529;-80
2021/04/01 09:00:41;;;;;;;0.93;0.93;;;;;;;6.68;100.00;100960.72;5032720;28;20426;-80
2021/04/01 09:03:48;;;;;;;1.13;0.68;;;;;;;6.64;100.00;100973.84;5025835;28;20086;-81
2021/04/01 09:07:01;;;;;;;0.68;0.52;;;;;;;6.71;100.00;100957.13;5026459;28;20060;-81
2021/04/01 09:13:33;;;;;;;12.13;1.33;;;;;;;6.78;100.00;100968.84;5031612;28;20057;-80
2021/04/01 09:16:39;;;;;;;1.35;0.68;;;;;;;6.83;100.00;100981.41;5032482;28;20820;-81
2021/04/01 09:19:45;;;;;;;1.27;0.93;;;;;;;6.91;100.00;100976.53;5033623;28;20064;-81
2021/04/01 09:22:51;;;;;;;0.63;0.63;;;;;;;6.86;100.00;100972.28;5026229;28;20059;-81
2021/04/01 09:25:56;;;;;;;2.45;1.17;;;;;;;6.81;100.00;100981.06;5033638;28;20488;-81
2021/04/01 09:29:04;;;;;;;2.83;1.00;;;;;;;6.84;100.00;100980.22;5027436;28;20060;-80
2021/04/01 09:32:11;;;;;;;0.85;0.63;;;;;;;6.97;100.00;100975.63;5029160;28;20056;-81
2021/04/01 09:35:16;;;;;;;0.43;0.43;;;;;;;7.00;100.00;100980.31;5033683;28;20068;-80
2021/04/01 09:38:20;;;;;;;0.60;0.60;;;;;;;7.01;100.00;100984.66;5033217;28;20080;-79
2021/04/01 09:41:28;;;;;;;2.72;0.73;;;;;;;7.01;100.00;100990.19;5034104;28;20423;-80
2021/04/01 09:44:33;;;;;;;1.58;0.68;;;;;;;7.07;100.00;100991.25;5033266;28;20060;-80
2021/04/01 09:47:39;;;;;;;1.45;0.50;;;;;;;7.09;100.00;100994.38;5033588;28;20065;-81
2021/04/01 09:50:45;;;;;;;3.20;1.00;;;;;;;7.16;100.00;100983.19;5032685;28;20064;-81
2021/04/01 09:53:53;;;;;;;1.75;0.90;;;;;;;7.26;100.00;100986.94;5026306;28;20072;-82
2021/04/01 09:56:59;;;;;;;1.35;1.00;;;;;;;7.41;100.00;100996.53;5033438;28;20060;-81
2021/04/01 10:00:15;;;;;;;0.90;0.75;;;;;;;7.57;100.00;100985.53;5028594;28;20061;-80
2021/04/01 10:03:44;;;;;;;5.53;1.27;;;;;;;7.60;100.00;100996.53;5033129;28;20064;-81
2021/04/01 10:06:50;;;;;;;2.13;0.90;;;;;;;7.71;100.00;100995.53;5026140;28;20060;-81
2021/04/01 10:09:57;;;;;;;1.17;0.60;;;;;;;7.76;100.00;101000.56;5033837;28;20084;-81
2021/04/01 10:13:00;;;;;;;2.33;0.90;;;;;;;7.62;100.00;100999.66;5032459;28;20112;-81
2021/04/01 10:16:21;;;;;;;2.70;0.88;;;;;;;7.56;100.00;101006.13;5028139;28;20115;-81
2021/04/01 10:19:28;;;;;;;1.45;1.10;;;;;;;7.58;100.00;101003.69;5032362;28;20108;-81
2021/04/01 10:22:33;;;;;;;2.13;1.13;;;;;;;7.65;100.00;101009.91;5033208;28;20064;-81
2021/04/01 10:25:49;;;;;;;1.65;0.47;;;;;;;7.62;100.00;101005.19;5032771;28;20418;-81
2021/04/01 10:29:01;;;;;;;1.25;0.80;;;;;;;7.70;100.00;101002.28;5033129;28;20064;-81
2021/04/01 10:32:07;;;;;;;1.45;0.80;;;;;;;7.79;100.00;101002.50;5032553;28;20104;-82
2021/04/01 10:35:12;;;;;;;3.63;0.47;;;;;;;7.97;100.00;101005.69;5032922;28;20437;-80
2021/04/01 10:38:21;;;;;;;0.63;0.63;;;;;;;8.10;100.00;101003.81;5031519;28;20071;-82
2021/04/01 10:41:25;;;;;;;2.70;0.63;;;;;;;8.13;100.00;101002.91;5031852;28;20053;-81
2021/04/01 10:44:30;;;;;;;2.00;0.60;;;;;;;8.20;100.00;100994.44;5032373;28;20058;-78
2021/04/01 10:47:53;;;;;;;0.55;0.50;;;;;;;8.15;100.00;101000.50;5032620;28;20060;-80
2021/04/01 10:51:02;;;;;;;0.80;0.57;;;;;;;8.55;100.00;100999.19;5025386;28;20061;-80
2021/04/01 10:54:09;;;;;;;1.23;0.32;;;;;;;8.76;100.00;100998.66;5032201;28;20064;-81
2021/04/01 10:57:29;;;;;;;0.30;0.28;;;;;;;8.70;100.00;100994.06;5031541;28;20060;-81
2021/04/01 11:00:33;;;;;;;0.35;0.35;;;;;;;8.65;100.00;100998.13;5031771;28;20116;-81
2021/04/01 11:03:43;;;;;;;1.55;0.55;;;;;;;8.82;100.00;101010.78;5031215;28;20061;-81
2021/04/01 11:06:51;;;;;;;0.20;0.20;;;;;;;8.83;100.00;101004.03;5031757;28;20057;-82
2021/04/01 11:09:56;;;;;;;1.42;0.28;;;;;;;8.71;100.00;101007.50;5024991;28;20098;-80
2021/04/01 11:13:02;;;;;;;3.45;0.55;;;;;;;8.57;100.00;101013.41;5032099;28;20072;-81
2021/04/01 11:16:10;;;;;;;2.15;0.50;;;;;;;8.73;100.00;101018.94;5026845;28;20068;-79
2021/04/01 11:19:16;;;;;;;0.20;0.20;;;;;;;8.69;100.00;101026.59;5027763;28;20064;-75
2021/04/01 11:22:20;;;;;;;0.50;0.32;;;;;;;8.50;100.00;101013.59;5027884;28;20056;-77
2021/04/01 11:25:23;;;;;;;0.40;0.40;;;;;;;8.62;100.00;101010.09;5031721;28;20076;-77
2021/04/01 11:28:39;;;;;;;0.40;0.40;;;;;;;8.45;100.00;101019.63;5030435;28;20061;-76
2021/04/01 11:31:42;;;;;;;3.03;0.38;;;;;;;8.27;100.00;101016.50;5031183;28;20405;-75
2021/04/01 11:34:47;;;;;;;0.45;0.45;;;;;;;8.48;100.00;101010.47;5031038;28;20068;-77
2021/04/01 11:37:54;;;;;;;0.52;0.40;;;;;;;9.01;100.00;101021.00;5024420;28;20056;-77
2021/04/01 11:41:03;;;;;;;1.25;0.30;;;;;;;9.49;100.00;101022.09;5032253;28;20084;-77
2021/04/01 11:44:10;;;;;;;0.85;0.45;;;;;;;9.68;100.00;101029.53;5025826;28;20068;-77
2021/04/01 11:47:23;;;;;;;3.97;0.57;;;;;;;9.72;100.00;101036.53;5030720;28;20108;-78
2021/04/01 11:50:27;;;;;;;1.77;0.60;;;;;;;9.54;100.00;101039.03;5028124;28;20060;-78
2021/04/01 11:53:30;;;;;;;0.40;0.40;;;;;;;9.40;100.00;101035.88;5030763;28;20501;-78
2021/04/01 11:56:41;;;;;;;0.85;0.57;;;;;;;9.33;100.00;101027.72;5034797;28;20125;-78
2021/04/01 12:00:08;;;;;;;;;;;;;;;9.04;100.00;101031.25;5042378;28;20065;-79
2021/04/01 12:04:00;;;;;;;6.97;1.02;;;;;;;8.86;100.00;101027.34;5013621;28;19921;-77
2021/04/01 12:06:37;;;;;;;0.47;0.47;;;;;;;8.76;100.00;101029.19;5011310;28;20064;-79
2021/04/01 12:09:45;;;;;;;0.75;0.50;;;;;;;8.85;100.00;101032.16;5009986;28;20064;-79
2021/04/01 12:12:55;;;;;;;0.73;0.30;;;;;;;8.87;100.00;101032.50;5018827;28;20064;-79
2021/04/01 12:15:59;;;;;;;1.67;0.63;;;;;;;8.84;100.00;101033.34;5022906;28;20422;-79
2021/04/01 12:19:04;;;;;;;1.30;0.43;;;;;;;8.84;100.00;101033.34;5006893;28;20090;-78
2021/04/01 12:22:09;;;;;;;9.70;0.70;;;;;;;9.09;100.00;101039.06;5010580;28;20061;-79
2021/04/01 12:25:16;;;;;;;0.68;0.68;;;;;;;9.24;100.00;101041.47;5010633;28;20080;-78
2021/04/01 12:28:22;;;;;;;1.20;0.50;;;;;;;9.40;100.00;101052.56;5010243;28;20056;-76
2021/04/01 12:31:30;;;;;;;3.80;0.63;;;;;;;9.40;100.00;101047.00;5010627;28;20069;-81
2021/04/01 12:34:34;;;;;;;0.30;0.30;;;;;;;9.39;100.00;101045.44;5021016;28;20061;-80
2021/04/01 12:37:38;;;;;;;1.00;0.45;;;;;;;9.32;100.00;101057.53;5010645;28;20069;-80
2021/04/01 12:40:41;;;;;;;0.60;0.60;;;;;;;9.34;100.00;101043.97;5009613;28;20073;-77
2021/04/01 12:43:45;;;;;;;0.85;0.50;;;;;;;9.61;100.00;101051.97;5010228;28;20073;-78
2021/04/01 12:46:49;;;;;;;2.10;1.02;;;;;;;9.82;100.00;101052.16;5010275;28;20065;-78
2021/04/01 12:49:59;;;;;;;0.40;0.35;;;;;;;9.75;100.00;101054.34;5010300;28;20069;-78
2021/04/01 12:53:04;;;;;;;0.70;0.70;;;;;;;9.83;100.00;101036.25;5004895;28;20173;-79
2021/04/01 12:56:17;;;;;;;2.10;0.98;;;;;;;9.93;100.00;101049.06;5019413;28;20413;-79
2021/04/01 12:59:31;;;;;;;1.05;0.45;;;;;;;10.12;100.00;101064.81;5029086;28;20076;-79
2021/04/01 13:02:34;;;;;;;0.40;0.10;;;;;;;10.04;100.00;101063.44;5021899;28;20060;-79
2021/04/01 13:05:41;;;;;;;1.25;0.80;;;;;;;9.85;100.00;101067.94;5038257;28;20425;-80
2021/04/01 13:11:50;;;;;;;5.82;0.82;;;;;;;9.81;100.00;101060.94;5022197;28;20061;-78
2021/04/01 13:14:54;;;;;;;0.30;0.10;;;;;;;9.80;100.00;101073.28;5022962;28;20453;-78
2021/04/01 13:17:57;;;;;;;2.17;1.42;;;;;;;9.69;100.00;101067.22;5023273;28;20529;-79
2021/04/01 13:21:02;;;;;;;2.38;0.63;;;;;;;9.78;100.00;101067.38;5029644;28;20057;-79
2021/04/01 13:27:19;;;;;;;2.03;0.52;;;;;;;9.61;100.00;101069.44;5029365;28;20060;-79
2021/04/01 13:30:23;;;;;;;0.60;0.40;;;;;;;9.52;100.00;101071.28;5033580;28;20064;-79
2021/04/01 13:37:30;;;;;;;1.38;0.55;;;;;;;9.51;100.00;101064.94;5025636;28;20560;-78
2021/04/01 13:40:15;;;;;;;3.40;1.00;;;;;;;9.62;100.00;101064.66;5032890;28;20059;-78
2021/04/01 13:43:22;;;;;;;0.85;0.77;;;;;;;9.83;100.00;101052.94;5022936;28;20072;-80
2021/04/01 13:46:26;;;;;;;0.50;0.40;;;;;;;9.95;100.00;101049.38;5012653;28;20085;-80
2021/04/01 13:49:30;;;;;;;0.73;0.30;;;;;;;9.84;100.00;101055.28;5021694;28;20056;-80
2021/04/01 13:56:16;;;;;;;2.92;0.30;;;;;;;9.50;100.00;101051.47;5023301;28;20060;-80
2021/04/01 14:09:31;;;;;;;1.55;0.75;;;;;;;9.25;100.00;101051.38;5032025;28;20057;-80
2021/04/01 14:12:36;;;;;;;1.35;0.43;;;;;;;9.15;100.00;101056.78;5032316;28;20068;-81
2021/04/01 14:15:41;;;;;;;6.28;0.65;;;;;;;9.04;100.00;101052.69;5032812;28;20068;-80
2021/04/01 14:18:47;;;;;;;4.97;0.85;;;;;;;8.93;100.00;101055.75;5032180;28;20414;-79
2021/04/01 14:21:56;;;;;;;1.10;0.40;;;;;;;9.06;100.00;101039.16;5032812;28;20541;-80
2021/04/01 14:25:05;;;;;;;4.32;0.68;;;;;;;9.17;100.00;101042.44;5029889;28;20068;-79
2021/04/01 14:28:12;;;;;;;0.60;0.40;;;;;;;9.13;100.00;101045.31;5027383;28;20068;-79
2021/04/01 14:31:17;;;;;;;0.73;0.57;;;;;;;9.01;100.00;101056.34;5032340;28;20066;-79
2021/04/01 14:34:22;;;;;;;1.48;0.80;;;;;;;8.96;100.00;101054.09;5030595;28;20513;-79
2021/04/01 14:37:30;;;;;;;1.60;0.82;;;;;;;9.00;100.00;101047.25;5031976;28;20147;-79
2021/04/01 14:40:49;;;;;;;4.05;0.35;;;;;;;8.94;100.00;101043.41;5032181;28;20101;-81
2021/04/01 14:47:35;;;;;;;0.93;0.30;;;;;;;8.89;100.00;101049.50;4987830;28;20414;-79
2021/04/01 14:50:39;;;;;;;4.43;0.82;;;;;;;8.89;100.00;101055.06;4990442;28;20077;-80
2021/04/01 14:56:56;;;;;;;3.60;0.77;;;;;;;8.92;100.00;101045.84;5031128;28;20064;-80
2021/04/01 15:00:06;;;;;;;10.18;0.80;;;;;;;8.90;100.00;101048.28;5031870;28;20063;-81
2021/04/01 15:03:10;;;;;;;1.38;0.35;;;;;;;8.80;100.00;101043.78;5031368;28;20056;-80
2021/04/01 15:06:15;;;;;;;1.20;0.45;;;;;;;8.85;100.00;101046.03;5030806;28;20494;-79
2021/04/01 15:09:20;;;;;;;1.55;1.23;;;;;;;8.98;100.00;101048.91;5029752;28;20060;-79
2021/04/01 15:12:23;;;;;;;0.35;0.15;;;;;;;9.00;100.00;101057.56;5030549;28;20061;-80
2021/04/01 15:15:29;;;;;;;6.00;1.23;;;;;;;8.91;100.00;101060.97;5029814;28;20061;-80
2021/04/01 15:18:33;;;;;;;7.75;0.70;;;;;;;8.76;100.00;101056.97;5031008;28;20057;-80
2021/04/01 15:21:37;;;;;;;0.50;0.40;;;;;;;8.69;100.00;101048.81;5030892;28;20513;-80
2021/04/01 15:24:41;;;;;;;0.40;0.38;;;;;;;8.61;100.00;101057.75;5031067;28;20065;-80
2021/04/01 15:27:45;;;;;;;0.57;0.45;;;;;;;8.62;100.00;101048.97;5022834;28;20064;-78
2021/04/01 15:30:48;;;;;;;1.27;0.40;;;;;;;8.61;100.00;101050.19;5034031;28;20080;-79
2021/04/01 15:33:52;;;;;;;1.25;0.28;;;;;;;8.55;100.00;101048.38;5030745;28;20076;-79
2021/04/01 15:36:57;;;;;;;4.85;0.45;;;;;;;8.54;100.00;101042.03;5031530;28;20103;-80
2021/04/01 15:40:01;;;;;;;2.35;0.68;;;;;;;8.61;100.00;101046.63;5030722;28;20068;-80
2021/04/01 15:43:08;;;;;;;0.43;0.30;;;;;;;8.53;100.00;101051.59;5026053;28;20525;-79
2021/04/01 15:46:13;;;;;;;0.93;0.40;;;;;;;8.50;100.00;101049.66;5031695;28;20064;-79
2021/04/01 15:49:16;;;;;;;0.35;0.30;;;;;;;8.43;100.00;101049.03;5028404;28;20056;-79
2021/04/01 15:52:19;;;;;;;0.50;0.50;;;;;;;8.51;100.00;101048.44;5030734;28;20410;-78
2021/04/01 15:55:24;;;;;;;0.85;0.43;;;;;;;8.58;100.00;101048.28;5031465;28;20061;-79
2021/04/01 15:58:27;;;;;;;4.15;0.68;;;;;;;8.60;100.00;101045.84;5032680;28;20061;-78
2021/04/01 16:01:31;;;;;;;0.75;0.32;;;;;;;8.53;100.00;101051.59;5013188;28;20076;-78
2021/04/01 16:04:34;;;;;;;0.32;0.30;;;;;;;8.51;100.00;101059.53;5011640;28;20394;-81
2021/04/01 16:07:38;;;;;;;0.73;0.73;;;;;;;8.46;100.00;101045.41;5011407;28;20076;-77
2021/04/01 16:10:42;;;;;;;2.13;1.02;;;;;;;8.49;100.00;101059.19;5011343;28;20407;-79
2021/04/01 16:13:45;;;;;;;1.95;0.73;;;;;;;8.55;100.00;101065.81;5023261;28;20556;-79
2021/04/01 16:16:49;;;;;;;4.38;0.77;;;;;;;8.58;100.00;101062.16;5023624;28;20076;-77
2021/04/01 16:19:52;;;;;;;1.45;0.60;;;;;;;8.48;100.00;101065.97;5024097;28;20061;-78
2021/04/01 16:22:57;;;;;;;2.15;0.50;;;;;;;8.37;100.00;101060.69;5023966;28;20068;-78
2021/04/01 16:26:00;;;;;;;4.28;0.63;;;;;;;8.35;100.00;101051.22;5025245;28;20060;-78
2021/04/01 16:29:04;;;;;;;3.25;0.55;;;;;;;8.32;100.00;101060.38;5025192;28;20409;-79